Chickasaw, Iowa
Current Conditions -  °F | °C
As of 3:35 AM on Thursday 27 Nov 2014 (Local Time) from KCCY Reporting Station
Light Snow Light Snow  
Wind Chill: -4°   Ceiling: 1600
Heat Index: 12°   Visibility: 10mi
Dew Point:   Wind: 15mph
Humidity: 79%   Direction: 320°NW
Pressure: 30.38"   Gusts: 21mph
Location:  43.0386°N, 92.4951°W
Report Text: KCCY 270935Z AUTO 32013G18KT 10SM -SN FEW009 BKN016 OVC037 M11/M14 A3038 RMK AO2
Loading
Personal Weather Stations






























Interactive Weather Map New forecast layout! Learn more

10-Day Weather Forecast

Advertisements
Track Severe Weather on mobile